Terminal Aerodrome Forecast
Issued by NWS Cleveland, OH

Home | Current Version | Previous Version | Graphics & Text | Print | Product List | Glossary On
Versions: 1 2 3 4 5 6 7 8 9 10 11 12 13 14 15 16 17 18 19
000
FTUS41 KCLE 200500
TAFYNG
TAF
KYNG 200530Z 2006/2106 VRB03KT 2SM -RA BR BKN003 OVC015
     FM200800 00000KT 1/2SM FG OVC004
     FM201400 00000KT 4SM BR BKN012
     FM201600 18004KT P6SM BKN025
     FM202100 20004KT P6SM SCT050=

USA.gov is the U.S. government's official web portal to all federal, state and local government web resources and services.